• Join FlightAware (Why Join?)
  • Login
  • US Flag 
05:44PM EST


 

Airport Tracker/Info


-or-


 

Live Flight TrackerFlight Track Log ✈ BER7857 ✈ 24-Apr-2013 ✈ LEAL / ALC - LEPA / PMI

Flight Track Log - Related Links

Times and Time Zones

All times are in EDT time to prevent confusion due to time zone crossing. See the BER7857 flight status page for this flight to view local times or setup timezone preferences in your user account.

Time Position Orientation Groundspeed Altitude Reporting Facility
EDT Latitude Longitude Course Direction KTS MPH feet Rate Location/Type
06:37AM 38.5230 0.0405 63° Northeast  Level Estimated
06:38AM 38.5571 0.1263 63° Northeast  Level Estimated
06:39AM 38.5912 0.2122 63° Northeast  Level Estimated
06:40AM 38.6253 0.2982 63° Northeast  Level Estimated
06:41AM 38.6592 0.3843 63° Northeast  Level Estimated
06:42AM 38.6931 0.4705 63° Northeast  Level Estimated
06:43AM 38.7270 0.5568 63° Northeast  Level Estimated
06:44AM 38.7607 0.6431 63° Northeast  Level Estimated
06:45AM 38.7945 0.7295 63° Northeast  Level Estimated
06:46AM 38.8281 0.8160 63° Northeast  Level Estimated
06:47AM 38.8617 0.9026 63° Northeast  Level Estimated
06:48AM 38.8952 0.9893 64° Northeast  Level Estimated
06:49AM 38.9287 1.0760 64° Northeast  Level Estimated
06:50AM 38.9621 1.1628 64° Northeast  Level Estimated
06:51AM 38.9954 1.2497 64° Northeast  Level Estimated
06:52AM 39.0286 1.3367 64° Northeast  Level Estimated
06:53AM 39.0619 1.4238 64° Northeast  Level Estimated
06:54AM 39.0950 1.5109 64° Northeast  Level Estimated
06:55AM 39.1281 1.5982 64° Northeast  Level Estimated
06:56AM 39.1610 1.6855 64° Northeast  Level Estimated
06:57AM 39.1940 1.7729 64° Northeast  Level Estimated
06:58AM 39.2269 1.8604 64° Northeast  Level Estimated
06:59AM 39.2597 1.9479 64° Northeast  Level Estimated
07:00AM 39.2924 2.0356 64° Northeast  Level Estimated
07:01AM 39.3251 2.1233 64° Northeast  Level Estimated
07:02AM 39.3577 2.2111 64° Northeast  Level Estimated
07:03AM 39.3903 2.2990 64° Northeast  Level Estimated
07:04AM 39.4227 2.3869 64° Northeast  Level Estimated
07:05AM 39.4551 2.4750 64° Northeast  Level Estimated
07:06AM 39.4875 2.5631 65° Northeast  Level Estimated
07:07AM 39.5198 2.6513 65° Northeast  Level Estimated
07:08AM 39.5517 2.7388 65° Northeast  Level Estimated
07:09AM 39.5517 2.7388 197° South  Level Estimated
07:10AM 39.5517 2.7388 197° South  Level Estimated
07:11AM 39.5517 2.7388 197° South  Level Estimated
07:12AM 39.5517 2.7388 197° South  Level Estimated
07:13AM 39.5517 2.7388 197° South  Level Estimated
07:14AM 39.5517 2.7388 197° South  Level Estimated
07:15AM 39.5517 2.7388 197° South  Level Estimated